Time;durP1;ratioP1;P1;durP2;ratioP2;P2;SDS_P1;SDS_P2;PMS_P1;PMS_P2;Temp;Humidity;BMP_temperature;BMP_pressure;BME280_temperature;BME280_humidity;BME280_pressure;Samples;Min_cycle;Max_cycle;Signal;HPM_P1;HPM_P2
2023/07/07 00:02:13;;;;;;;8.20;6.40;;;;;;;12.56;73.90;97601.81;111214;1235;95485;-82
2023/07/07 00:04:41;;;;;;;7.60;6.00;;;;;;;12.53;73.91;97604.39;111156;1236;95876;-82
2023/07/07 00:07:08;;;;;;;8.90;6.60;;;;;;;12.52;73.87;97609.61;111121;1235;95503;-83
2023/07/07 00:09:34;;;;;;;9.70;5.60;;;;;;;12.50;74.03;97613.48;111223;1235;95467;-82
2023/07/07 00:18:52;;;;;;;10.30;6.50;;;;;;;12.72;73.59;97616.55;101744;1292;643322;-77
2023/07/07 00:23:37;;;;;;;9.10;6.40;;;;;;;12.60;73.77;97620.87;101826;1292;636009;-75
2023/07/07 00:26:38;;;;;;;11.70;6.30;;;;;;;12.55;73.96;97619.34;101964;1291;636233;-76
2023/07/07 00:29:55;;;;;;;10.10;6.90;;;;;;;12.53;74.03;97617.26;102395;1287;641618;-78
2023/07/07 00:32:22;;;;;;;10.20;7.00;;;;;;;12.45;74.17;97621.38;105217;1275;96810;-77
2023/07/07 00:34:48;;;;;;;13.10;7.00;;;;;;;12.40;74.18;97624.46;105221;1256;95863;-82
2023/07/07 00:37:14;;;;;;;10.00;6.80;;;;;;;12.36;74.26;97623.39;105393;1254;95864;-83
2023/07/07 00:41:47;;;;;;;11.00;7.10;;;;;;;12.29;74.25;97625.48;102195;1304;637302;-83
2023/07/07 00:44:15;;;;;;;11.50;7.30;;;;;;;12.19;74.34;97626.16;104700;1263;95842;-83
2023/07/07 00:46:42;;;;;;;9.60;6.30;;;;;;;12.12;74.57;97625.07;104310;1271;96322;-83
2023/07/07 00:49:17;;;;;;;9.90;5.90;;;;;;;12.05;74.74;97627.65;104169;1286;98492;-83
2023/07/07 00:54:40;;;;;;;6.70;5.40;;;;;;;11.99;74.94;97636.83;102160;1312;636420;-82
2023/07/07 00:57:08;;;;;;;10.70;6.30;;;;;;;11.94;74.81;97638.36;104414;1271;95861;-82
2023/07/07 01:00:43;;;;;;;9.70;6.70;;;;;;;11.92;74.92;97643.23;102511;1291;635987;-82
2023/07/07 01:03:22;;;;;;;9.70;6.90;;;;;;;11.89;75.04;97644.11;104316;1267;95926;-83
2023/07/07 01:05:53;;;;;;;9.10;6.20;;;;;;;11.88;75.12;97648.81;104236;1266;95893;-83
2023/07/07 01:08:21;;;;;;;10.90;6.90;;;;;;;11.87;75.18;97645.73;104258;1268;98452;-83
2023/07/07 01:10:49;;;;;;;12.00;6.60;;;;;;;11.85;75.20;97648.27;104269;1279;100361;-82
2023/07/07 01:13:17;;;;;;;9.50;7.00;;;;;;;11.82;75.24;97649.05;103992;1270;231665;-82
2023/07/07 01:15:57;;;;;;;11.50;6.90;;;;;;;11.79;75.42;97651.09;104423;1266;96513;-82
2023/07/07 01:22:52;;;;;;;11.90;6.60;;;;;;;11.79;75.69;97643.43;101783;1295;644094;-78
2023/07/07 01:25:39;;;;;;;13.40;7.80;;;;;;;11.75;75.93;97644.85;104519;1270;95862;-78
2023/07/07 01:28:24;;;;;;;11.00;6.30;;;;;;;11.73;75.88;97648.23;104508;1267;97116;-78
2023/07/07 01:30:58;;;;;;;11.70;6.70;;;;;;;11.72;75.93;97643.79;104440;1269;99523;-84
2023/07/07 01:33:31;;;;;;;11.30;6.90;;;;;;;11.73;76.06;97644.29;104436;1269;101553;-83
2023/07/07 01:35:58;;;;;;;16.90;7.00;;;;;;;11.71;76.15;97645.42;104281;1266;255917;-83
2023/07/07 01:38:47;;;;;;;10.10;7.00;;;;;;;11.67;76.16;97646.48;104610;1275;95863;-84
2023/07/07 01:41:57;;;;;;;11.90;7.80;;;;;;;11.65;76.10;97653.14;104477;1267;96103;-84
2023/07/07 01:44:38;;;;;;;12.20;6.60;;;;;;;11.62;76.09;97659.96;104169;1269;99545;-83
2023/07/07 01:47:16;;;;;;;8.60;6.50;;;;;;;11.60;76.20;97661.34;104612;1281;100406;-80
2023/07/07 01:49:56;;;;;;;12.10;7.40;;;;;;;11.56;76.30;97659.23;104619;1267;100320;-77
2023/07/07 01:52:27;;;;;;;11.40;7.40;;;;;;;11.52;76.44;97660.98;104454;1280;96330;-79
2023/07/07 01:54:59;;;;;;;11.30;7.60;;;;;;;11.45;76.50;97667.16;104969;1257;96987;-79
2023/07/07 01:57:28;;;;;;;12.80;7.80;;;;;;;11.42;76.71;97668.42;105195;1257;100936;-78
2023/07/07 01:59:55;;;;;;;11.80;8.00;;;;;;;11.41;76.80;97672.86;104804;1263;101356;-78
2023/07/07 02:02:22;;;;;;;12.70;8.50;;;;;;;11.42;77.04;97669.13;105013;1259;96184;-75
2023/07/07 02:04:49;;;;;;;26.70;9.20;;;;;;;11.45;77.34;97677.32;104804;1257;96505;-75
2023/07/07 02:07:15;;;;;;;18.20;10.10;;;;;;;11.41;77.27;97674.11;104912;1260;97227;-75
2023/07/07 02:09:42;;;;;;;16.30;10.00;;;;;;;11.39;77.28;97679.06;105056;1260;96023;-78
2023/07/07 02:12:08;;;;;;;24.50;10.90;;;;;;;11.39;77.53;97681.42;105111;1260;96780;-75
2023/07/07 02:14:35;;;;;;;20.30;10.80;;;;;;;11.37;77.63;97679.14;104935;1256;95985;-87
2023/07/07 02:17:02;;;;;;;20.30;10.70;;;;;;;11.38;77.64;97679.60;104782;1263;96821;-80
2023/07/07 02:19:28;;;;;;;21.10;11.30;;;;;;;11.39;77.56;97675.48;104890;1280;96043;-81
2023/07/07 02:21:54;;;;;;;21.90;11.70;;;;;;;11.40;77.65;97676.28;104845;1257;96795;-80
2023/07/07 02:24:21;;;;;;;18.50;10.80;;;;;;;11.40;77.82;97678.35;104986;1254;96661;-81
2023/07/07 02:26:49;;;;;;;19.00;11.20;;;;;;;11.39;77.53;97681.02;105089;1256;95997;-81
2023/07/07 02:29:17;;;;;;;20.30;11.50;;;;;;;11.34;77.61;97673.63;105258;1268;100940;-81
2023/07/07 02:31:43;;;;;;;17.60;10.30;;;;;;;11.34;77.68;97675.84;105088;1260;96248;-81
2023/07/07 02:34:09;;;;;;;17.00;10.00;;;;;;;11.35;77.69;97673.88;105209;1258;96194;-81
2023/07/07 02:36:36;;;;;;;19.60;10.30;;;;;;;11.36;77.69;97678.05;105130;1260;96034;-81
2023/07/07 02:39:03;;;;;;;20.10;10.60;;;;;;;11.36;77.68;97679.19;104833;1262;99959;-81
2023/07/07 02:41:30;;;;;;;16.80;10.10;;;;;;;11.34;77.69;97681.74;105080;1254;96147;-82
2023/07/07 02:43:56;;;;;;;17.80;9.40;;;;;;;11.33;77.69;97685.08;105052;1254;95953;-82
2023/07/07 02:46:22;;;;;;;16.20;9.70;;;;;;;11.33;77.63;97693.46;105117;1255;96023;-80
2023/07/07 02:48:49;;;;;;;16.50;10.00;;;;;;;11.32;77.64;97692.13;105153;1259;100033;-80
2023/07/07 02:51:15;;;;;;;14.10;8.90;;;;;;;11.31;77.65;97695.34;105262;1260;97094;-79
2023/07/07 02:53:41;;;;;;;17.00;10.50;;;;;;;11.28;77.59;97693.42;105351;1270;95866;-80
2023/07/07 02:56:08;;;;;;;17.50;10.50;;;;;;;11.27;77.52;97697.56;105391;1256;95930;-80
2023/07/07 02:58:34;;;;;;;15.70;11.30;;;;;;;11.26;77.62;97699.69;105124;1260;99514;-79
2023/07/07 03:01:15;;;;;;;19.70;11.00;;;;;;;11.24;77.66;97699.48;105013;1254;95906;-78
2023/07/07 03:03:44;;;;;;;17.30;11.20;;;;;;;11.23;77.69;97701.44;105010;1256;99967;-78
2023/07/07 03:06:16;;;;;;;16.90;10.30;;;;;;;11.23;77.76;97704.07;105040;1260;96010;-77
2023/07/07 03:08:42;;;;;;;20.60;10.90;;;;;;;11.21;77.67;97709.30;104892;1257;95864;-78
2023/07/07 03:11:12;;;;;;;17.50;11.10;;;;;;;11.18;77.60;97711.26;104823;1272;96150;-78
2023/07/07 03:13:39;;;;;;;21.70;11.60;;;;;;;11.16;77.67;97712.25;104851;1257;101353;-79
2023/07/07 03:16:13;;;;;;;17.30;10.80;;;;;;;11.14;77.61;97713.79;104788;1274;96015;-79
2023/07/07 03:18:40;;;;;;;15.70;10.40;;;;;;;11.13;77.68;97716.77;104841;1263;96214;-76
2023/07/07 03:21:08;;;;;;;17.70;10.90;;;;;;;11.13;77.70;97717.60;104903;1257;96033;-77
2023/07/07 03:23:36;;;;;;;16.30;9.90;;;;;;;11.12;77.75;97721.84;104866;1257;99542;-76
2023/07/07 03:26:06;;;;;;;12.10;9.10;;;;;;;11.11;77.73;97722.72;104596;1268;100421;-79
2023/07/07 03:28:33;;;;;;;17.70;9.60;;;;;;;11.07;77.75;97722.98;104898;1263;99360;-77
2023/07/07 03:31:11;;;;;;;16.10;8.80;;;;;;;11.06;77.82;97720.86;105014;1259;96467;-77
2023/07/07 03:33:42;;;;;;;16.50;9.80;;;;;;;11.04;77.73;97720.56;105030;1260;96010;-78
2023/07/07 03:36:11;;;;;;;12.70;9.40;;;;;;;11.05;77.67;97722.22;105178;1259;99706;-77
2023/07/07 03:38:38;;;;;;;13.60;8.50;;;;;;;11.04;77.77;97719.89;105098;1261;100047;-77
2023/07/07 03:41:06;;;;;;;14.30;9.00;;;;;;;11.03;77.75;97717.77;105060;1260;100364;-77
2023/07/07 03:43:33;;;;;;;14.60;8.60;;;;;;;11.03;77.90;97716.23;105258;1251;97181;-77
2023/07/07 03:46:00;;;;;;;15.00;9.50;;;;;;;11.04;77.93;97719.89;105275;1257;95888;-76
2023/07/07 03:48:27;;;;;;;15.50;9.10;;;;;;;11.04;77.96;97718.02;105334;1255;95851;-76
2023/07/07 03:50:57;;;;;;;14.70;9.60;;;;;;;11.00;78.04;97722.26;105306;1267;95756;-76
2023/07/07 03:53:23;;;;;;;19.70;10.40;;;;;;;10.98;78.30;97724.09;105396;1257;98962;-76
2023/07/07 03:55:49;;;;;;;18.20;10.60;;;;;;;11.01;78.45;97723.91;105233;1252;96789;-77
2023/07/07 03:58:16;;;;;;;16.40;10.80;;;;;;;11.01;78.46;97731.19;105360;1251;96057;-76
2023/07/07 04:00:42;;;;;;;24.70;11.00;;;;;;;11.05;78.59;97736.52;105395;1256;95838;-78
2023/07/07 04:03:08;;;;;;;20.80;11.40;;;;;;;11.08;78.71;97741.35;105419;1257;99913;-78
2023/07/07 04:05:42;;;;;;;20.20;11.30;;;;;;;11.11;78.90;97743.05;105329;1251;95843;-78
2023/07/07 04:08:09;;;;;;;15.50;11.10;;;;;;;11.14;79.15;97744.91;105082;1257;96098;-78
2023/07/07 04:10:35;;;;;;;22.00;13.10;;;;;;;11.19;79.25;97744.27;105369;1251;95964;-82
2023/07/07 04:13:02;;;;;;;24.00;14.90;;;;;;;11.25;79.47;97743.46;105345;1257;95985;-78
2023/07/07 04:15:28;;;;;;;21.50;13.70;;;;;;;11.31;79.63;97741.07;105326;1251;96550;-77
2023/07/07 04:17:54;;;;;;;19.80;12.30;;;;;;;11.37;79.66;97740.85;105351;1264;95931;-77
2023/07/07 04:20:21;;;;;;;19.90;13.10;;;;;;;11.41;79.69;97738.07;105361;1257;95774;-77
2023/07/07 04:22:47;;;;;;;19.40;12.60;;;;;;;11.43;79.71;97733.88;105353;1257;95877;-77
2023/07/07 04:25:16;;;;;;;18.70;11.30;;;;;;;11.44;79.78;97734.38;105319;1257;95854;-77
2023/07/07 04:27:43;;;;;;;17.10;11.50;;;;;;;11.46;79.88;97737.11;105332;1252;97123;-77
2023/07/07 04:30:11;;;;;;;15.70;11.60;;;;;;;11.51;79.98;97737.06;105486;1257;100966;-81
2023/07/07 04:32:38;;;;;;;16.90;11.60;;;;;;;11.56;79.91;97740.40;105354;1256;100319;-76
2023/07/07 04:35:05;;;;;;;16.40;11.00;;;;;;;11.59;79.96;97740.05;105441;1251;96709;-76
2023/07/07 04:37:32;;;;;;;13.30;10.30;;;;;;;11.62;80.07;97738.54;105250;1275;97450;-76
2023/07/07 04:39:58;;;;;;;12.50;9.80;;;;;;;11.66;80.13;97735.85;105321;1255;95870;-77
2023/07/07 04:42:25;;;;;;;13.10;10.10;;;;;;;11.71;80.16;97734.41;105399;1255;95803;-77
2023/07/07 04:44:51;;;;;;;13.40;10.10;;;;;;;11.75;80.17;97739.85;105308;1257;99981;-77
2023/07/07 04:47:17;;;;;;;13.80;11.10;;;;;;;11.76;80.21;97741.02;105314;1256;96827;-80
2023/07/07 04:49:44;;;;;;;17.00;10.80;;;;;;;11.76;80.38;97734.48;105141;1254;96351;-79
2023/07/07 04:52:10;;;;;;;13.80;12.10;;;;;;;11.82;80.29;97732.89;105094;1257;95995;-79
2023/07/07 04:54:37;;;;;;;16.10;11.60;;;;;;;11.87;80.50;97734.75;105054;1254;98983;-81
2023/07/07 04:57:03;;;;;;;12.60;10.40;;;;;;;11.92;80.60;97736.46;105051;1272;96033;-79
2023/07/07 04:59:31;;;;;;;14.70;10.50;;;;;;;11.96;80.62;97736.77;105141;1254;97289;-79
2023/07/07 05:01:57;;;;;;;11.70;10.40;;;;;;;12.03;80.68;97741.34;105183;1260;97275;-79
2023/07/07 05:04:23;;;;;;;14.70;11.00;;;;;;;12.07;80.79;97743.02;104875;1258;96404;-79
2023/07/07 05:06:50;;;;;;;12.90;9.60;;;;;;;12.12;80.85;97742.14;104659;1262;96893;-79
2023/07/07 05:09:16;;;;;;;11.60;9.40;;;;;;;12.16;80.91;97743.02;104753;1264;97164;-79
2023/07/07 05:11:42;;;;;;;15.50;10.60;;;;;;;12.20;81.03;97740.77;104827;1258;95842;-78
2023/07/07 05:14:09;;;;;;;14.10;10.10;;;;;;;12.27;80.97;97740.80;104824;1259;96252;-78
2023/07/07 05:16:38;;;;;;;16.70;11.20;;;;;;;12.33;80.95;97742.65;104800;1262;97086;-78
2023/07/07 05:19:05;;;;;;;15.60;11.50;;;;;;;12.38;81.00;97738.80;104635;1267;95929;-79
2023/07/07 05:21:31;;;;;;;15.00;11.30;;;;;;;12.44;81.01;97733.98;104923;1257;96159;-79
2023/07/07 05:23:58;;;;;;;15.50;10.90;;;;;;;12.50;81.02;97739.25;105024;1260;96048;-78
2023/07/07 05:26:27;;;;;;;14.50;10.70;;;;;;;12.57;81.14;97744.08;105002;1257;95918;-79
2023/07/07 05:28:58;;;;;;;13.10;11.20;;;;;;;12.64;81.14;97747.48;105092;1256;97295;-79
2023/07/07 05:31:24;;;;;;;17.50;11.10;;;;;;;12.71;81.08;97742.56;104978;1255;96978;-76
2023/07/07 05:33:50;;;;;;;16.30;9.80;;;;;;;12.78;81.11;97743.27;105002;1257;97165;-77
2023/07/07 05:36:16;;;;;;;14.20;10.00;;;;;;;12.85;80.98;97742.23;105113;1257;96565;-76
2023/07/07 05:38:43;;;;;;;15.50;10.50;;;;;;;12.91;81.03;97743.06;105294;1257;96592;-76
2023/07/07 05:41:10;;;;;;;12.90;10.50;;;;;;;12.98;81.12;97742.77;105240;1254;98009;-77
2023/07/07 05:43:37;;;;;;;13.50;10.80;;;;;;;13.06;81.37;97740.92;104962;1260;97450;-79
2023/07/07 05:46:07;;;;;;;14.10;11.00;;;;;;;13.12;81.30;97736.48;105353;1257;96554;-76
2023/07/07 05:48:34;;;;;;;14.70;10.00;;;;;;;13.20;81.28;97733.85;105023;1256;99625;-75
2023/07/07 05:51:03;;;;;;;17.70;11.20;;;;;;;13.27;81.39;97733.67;104712;1262;97898;-76
2023/07/07 05:53:29;;;;;;;16.80;11.10;;;;;;;13.34;81.28;97732.33;104751;1262;97243;-76
2023/07/07 05:59:08;;;;;;;13.50;10.00;;;;;;;13.58;80.75;97740.73;101761;1298;646030;-77
2023/07/07 06:03:56;;;;;;;12.80;9.90;;;;;;;13.75;80.66;97739.98;101669;1295;642496;-82
2023/07/07 06:06:22;;;;;;;16.30;9.80;;;;;;;13.80;80.61;97745.52;104331;1282;96272;-85
2023/07/07 06:08:49;;;;;;;17.50;10.60;;;;;;;13.89;80.53;97744.97;104351;1272;96930;-83
2023/07/07 06:13:23;;;;;;;13.60;9.30;;;;;;;14.07;80.57;97747.59;101875;1291;635996;-82
2023/07/07 06:15:55;;;;;;;11.50;9.50;;;;;;;14.14;80.48;97743.13;104363;1267;95894;-82
2023/07/07 06:18:23;;;;;;;12.10;8.90;;;;;;;14.24;80.50;97743.93;104493;1267;95852;-80
2023/07/07 06:20:53;;;;;;;12.60;9.60;;;;;;;14.33;80.45;97742.52;104498;1266;99623;-81
2023/07/07 06:23:21;;;;;;;11.60;9.40;;;;;;;14.43;80.30;97742.56;105091;1259;100192;-81
2023/07/07 06:25:49;;;;;;;14.90;10.30;;;;;;;14.53;80.26;97740.36;105033;1259;125260;-80
2023/07/07 06:28:18;;;;;;;15.30;9.80;;;;;;;14.63;79.89;97744.11;104868;1261;96053;-82
2023/07/07 06:30:50;;;;;;;15.00;9.60;;;;;;;14.72;79.43;97744.20;105081;1262;97381;-78
2023/07/07 06:33:19;;;;;;;14.50;9.60;;;;;;;14.82;79.32;97744.48;104980;1272;99713;-77
2023/07/07 06:35:46;;;;;;;12.70;9.20;;;;;;;14.93;79.03;97745.17;104857;1271;101560;-79
2023/07/07 06:38:14;;;;;;;15.30;9.70;;;;;;;15.03;78.70;97747.99;104949;1255;98706;-79
2023/07/07 06:40:42;;;;;;;16.40;9.40;;;;;;;15.14;78.74;97749.80;104906;1255;95843;-79
2023/07/07 06:43:09;;;;;;;13.20;9.50;;;;;;;15.25;78.39;97752.31;105054;1260;95971;-79
2023/07/07 06:45:37;;;;;;;12.50;8.30;;;;;;;15.35;78.21;97757.59;105096;1255;100947;-83
2023/07/07 06:48:06;;;;;;;14.00;9.70;;;;;;;15.45;77.87;97754.03;104897;1256;100183;-84
2023/07/07 06:50:40;;;;;;;13.10;9.00;;;;;;;15.55;77.88;97752.55;104881;1261;99881;-83
2023/07/07 06:53:10;;;;;;;13.90;9.10;;;;;;;15.67;77.79;97757.90;104902;1260;97129;-84
2023/07/07 06:55:40;;;;;;;13.70;9.20;;;;;;;15.77;77.38;97760.98;104781;1265;96160;-85
2023/07/07 06:58:11;;;;;;;16.60;9.40;;;;;;;15.89;77.06;97758.98;105039;1271;99878;-84
2023/07/07 07:00:39;;;;;;;13.20;8.20;;;;;;;16.00;76.74;97760.30;105110;1254;100671;-83
2023/07/07 07:03:07;;;;;;;10.80;7.90;;;;;;;16.10;76.38;97762.96;104877;1262;99944;-84
2023/07/07 07:31:15;;;;;;;11.70;7.10;;;;;;;17.93;73.29;97761.90;104431;1280;96004;-83
2023/07/07 07:33:42;;;;;;;9.70;6.30;;;;;;;18.08;73.21;97761.80;106292;1254;98833;-84
2023/07/07 07:36:08;;;;;;;8.90;6.80;;;;;;;18.21;72.69;97765.69;106179;1257;97110;-84
2023/07/07 07:38:34;;;;;;;8.60;6.60;;;;;;;18.32;72.54;97763.02;106158;1264;96051;-83
2023/07/07 07:41:01;;;;;;;11.10;7.20;;;;;;;18.46;72.26;97759.27;106356;1258;96762;-84
2023/07/07 07:43:27;;;;;;;9.60;6.30;;;;;;;18.62;71.90;97759.60;106239;1256;100648;-83
2023/07/07 07:45:55;;;;;;;9.70;6.30;;;;;;;18.78;71.95;97756.32;106148;1257;96336;-81
2023/07/07 07:48:21;;;;;;;15.40;7.00;;;;;;;18.95;71.79;97760.83;106569;1254;95896;-83
2023/07/07 07:50:47;;;;;;;9.00;5.40;;;;;;;19.09;70.50;97756.45;106522;1254;97037;-82
2023/07/07 07:53:14;;;;;;;9.70;5.10;;;;;;;19.24;69.77;97759.07;106587;1261;96034;-86
2023/07/07 07:55:40;;;;;;;7.80;4.80;;;;;;;19.39;69.40;97764.81;106534;1253;96020;-81
2023/07/07 07:58:07;;;;;;;16.20;5.50;;;;;;;19.57;68.81;97768.17;106552;1249;96049;-83
2023/07/07 08:00:33;;;;;;;11.40;5.30;;;;;;;19.82;68.15;97765.21;106558;1254;96426;-83
2023/07/07 08:03:00;;;;;;;8.20;4.90;;;;;;;20.14;67.29;97768.19;106580;1264;96088;-84
2023/07/07 08:05:27;;;;;;;11.80;5.30;;;;;;;20.52;66.88;97769.42;106327;1254;96077;-84
2023/07/07 08:09:09;;;;;;;9.00;5.40;;;;;;;21.21;65.82;97767.59;101745;1297;636381;-82
2023/07/07 08:11:43;;;;;;;11.20;5.10;;;;;;;21.67;64.96;97765.80;104366;1266;96732;-79
2023/07/07 08:14:23;;;;;;;6.40;4.60;;;;;;;22.09;64.59;97770.98;104374;1271;95911;-81
2023/07/07 08:16:52;;;;;;;8.00;4.50;;;;;;;22.47;63.59;97771.48;104968;1265;99403;-81
2023/07/07 08:19:19;;;;;;;11.40;5.50;;;;;;;22.76;62.79;97772.40;104790;1263;100419;-81
2023/07/07 08:21:48;;;;;;;6.60;4.50;;;;;;;22.99;62.37;97768.19;104532;1269;169340;-80
2023/07/07 08:24:16;;;;;;;8.90;4.70;;;;;;;23.21;61.80;97767.48;104914;1263;95950;-80
2023/07/07 08:26:46;;;;;;;6.40;4.40;;;;;;;23.44;61.15;97767.35;104816;1262;95966;-80
2023/07/07 08:29:14;;;;;;;9.40;4.30;;;;;;;23.66;60.40;97767.44;104886;1262;100466;-83
2023/07/07 08:31:42;;;;;;;7.20;4.80;;;;;;;23.88;59.90;97766.66;104862;1262;101201;-83
2023/07/07 08:34:10;;;;;;;6.40;4.80;;;;;;;24.02;58.95;97763.45;104792;1263;100207;-81
2023/07/07 08:36:38;;;;;;;6.00;4.50;;;;;;;24.03;58.73;97764.21;104822;1263;96120;-84
2023/07/07 08:39:15;;;;;;;12.60;5.60;;;;;;;24.19;57.83;97770.59;104840;1264;96030;-83
2023/07/07 08:41:49;;;;;;;6.80;4.20;;;;;;;24.39;56.86;97768.65;104745;1259;100959;-83
2023/07/07 08:44:21;;;;;;;6.80;3.90;;;;;;;24.71;55.98;97773.98;104795;1262;100377;-85
2023/07/07 08:47:29;;;;;;;10.70;5.10;;;;;;;25.01;54.96;97777.19;104717;1268;100172;-84
2023/07/07 08:50:16;;;;;;;7.10;4.90;;;;;;;25.28;54.17;97773.40;104848;1263;95947;-82
2023/07/07 08:53:02;;;;;;;5.40;4.50;;;;;;;25.63;53.73;97775.09;105321;1257;97215;-83
2023/07/07 08:56:10;;;;;;;6.00;4.40;;;;;;;25.92;53.19;97773.23;105268;1259;101086;-84
2023/07/07 09:00:57;;;;;;;6.60;4.00;;;;;;;26.25;52.49;97774.20;102111;1295;635448;-86
2023/07/07 09:04:15;;;;;;;4.30;2.90;;;;;;;26.46;51.26;97773.04;104355;1270;95885;-85
2023/07/07 09:06:52;;;;;;;6.20;3.20;;;;;;;26.66;50.89;97782.47;104174;1274;95979;-86
2023/07/07 09:26:35;;;;;;;5.20;2.90;;;;;;;25.57;44.86;97781.66;102200;1297;635657;-83
2023/07/07 09:29:14;;;;;;;10.90;3.70;;;;;;;25.32;45.86;97776.94;104160;1282;96373;-85
2023/07/07 09:31:43;;;;;;;4.70;2.90;;;;;;;25.35;46.12;97778.78;104394;1273;95877;-80
2023/07/07 09:34:34;;;;;;;12.90;3.30;;;;;;;25.57;46.37;97779.26;102176;1289;635731;-84
2023/07/07 09:37:35;;;;;;;7.50;2.90;;;;;;;25.52;45.92;97781.84;104109;1287;97199;-82
2023/07/07 10:08:38;;;;;;;3.80;2.70;;;;;;;26.22;41.46;97788.11;101641;1295;642598;-76
2023/07/07 10:11:27;;;;;;;5.90;2.80;;;;;;;25.82;41.86;97790.34;104325;1266;95884;-76
2023/07/07 10:13:55;;;;;;;5.00;3.20;;;;;;;25.60;42.61;97791.42;104409;1270;95870;-77
2023/07/07 10:16:32;;;;;;;3.80;2.80;;;;;;;25.51;43.43;97793.41;104557;1268;99687;-82
2023/07/07 10:19:07;;;;;;;3.30;2.40;;;;;;;25.60;44.26;97791.03;104676;1263;100022;-83
2023/07/07 10:21:33;;;;;;;3.50;2.70;;;;;;;25.89;43.56;97786.85;104675;1257;147467;-83
2023/07/07 10:24:00;;;;;;;5.50;2.00;;;;;;;26.09;41.94;97786.23;104818;1257;95816;-84
2023/07/07 10:26:26;;;;;;;2.50;2.00;;;;;;;26.29;41.37;97785.09;104878;1260;95855;-84
2023/07/07 10:28:57;;;;;;;3.00;2.40;;;;;;;26.51;40.71;97783.85;105291;1256;95937;-79
2023/07/07 10:31:26;;;;;;;4.90;2.00;;;;;;;26.71;40.03;97786.30;105079;1259;101578;-79
2023/07/07 10:33:57;;;;;;;2.30;1.90;;;;;;;26.60;39.74;97785.64;105267;1256;100174;-79
2023/07/07 10:36:26;;;;;;;6.00;2.30;;;;;;;26.28;39.51;97784.27;105218;1254;95927;-79
2023/07/07 10:38:55;;;;;;;5.00;2.30;;;;;;;26.04;39.57;97782.27;105199;1257;97170;-79
2023/07/07 10:41:23;;;;;;;4.20;2.40;;;;;;;26.05;39.13;97781.38;105117;1261;101125;-80
2023/07/07 10:43:49;;;;;;;3.20;2.00;;;;;;;26.22;39.12;97777.17;105355;1252;96165;-79
2023/07/07 10:46:16;;;;;;;5.00;2.60;;;;;;;26.48;39.37;97771.52;105244;1253;95955;-79
2023/07/07 10:48:44;;;;;;;6.80;2.70;;;;;;;26.61;39.25;97776.15;104949;1259;96036;-80
2023/07/07 10:51:16;;;;;;;5.50;2.40;;;;;;;26.62;39.31;97778.17;105258;1254;95932;-79
2023/07/07 10:53:57;;;;;;;3.00;2.30;;;;;;;26.51;39.24;97778.16;105178;1256;100702;-78
2023/07/07 10:56:33;;;;;;;3.50;2.40;;;;;;;26.52;39.27;97776.59;105341;1257;101352;-78
2023/07/07 10:59:20;;;;;;;3.10;2.50;;;;;;;26.69;39.73;97772.24;104793;1257;98856;-78
2023/07/07 11:02:06;;;;;;;5.10;2.50;;;;;;;26.97;39.45;97765.20;104808;1256;96341;-81
2023/07/07 11:05:00;;;;;;;2.70;2.40;;;;;;;27.28;39.15;97764.17;104605;1256;96024;-81
2023/07/07 11:08:00;;;;;;;2.60;2.40;;;;;;;27.46;39.04;97759.65;104758;1262;100880;-80
2023/07/07 11:10:54;;;;;;;5.50;3.00;;;;;;;27.37;37.98;97764.79;104957;1256;109977;-81
2023/07/07 11:13:58;;;;;;;3.80;2.50;;;;;;;27.17;37.92;97765.17;104882;1260;99948;-81
2023/07/07 11:16:39;;;;;;;3.80;2.20;;;;;;;26.94;37.09;97760.00;104803;1262;96192;-78
2023/07/07 11:19:15;;;;;;;4.50;2.90;;;;;;;26.60;37.65;97759.66;104666;1262;96649;-78
2023/07/07 11:22:20;;;;;;;2.90;2.20;;;;;;;26.38;38.19;97762.06;104881;1261;99440;-79
2023/07/07 11:25:01;;;;;;;2.60;2.30;;;;;;;26.18;37.71;97756.60;104774;1260;101454;-79
2023/07/07 11:28:06;;;;;;;3.50;2.20;;;;;;;25.97;37.66;97756.19;104728;1262;100128;-79
2023/07/07 11:31:12;;;;;;;2.60;2.10;;;;;;;26.11;38.25;97759.08;104933;1259;95832;-80
2023/07/07 11:34:10;;;;;;;5.00;2.30;;;;;;;26.10;38.47;97757.40;105078;1259;95850;-78
2023/07/07 11:36:37;;;;;;;3.30;2.40;;;;;;;25.97;38.73;97755.35;105203;1258;101303;-78
2023/07/07 11:39:33;;;;;;;3.20;2.40;;;;;;;25.87;38.94;97752.59;105149;1257;95804;-77
2023/07/07 11:42:22;;;;;;;3.00;2.70;;;;;;;26.06;39.47;97746.02;105089;1257;100181;-79
2023/07/07 11:45:16;;;;;;;3.10;2.30;;;;;;;26.48;40.07;97747.65;105164;1258;96733;-79
2023/07/07 11:47:48;;;;;;;3.30;2.30;;;;;;;26.78;38.89;97750.55;105214;1259;95858;-78
2023/07/07 11:50:36;;;;;;;3.00;2.40;;;;;;;26.71;38.55;97751.09;105158;1268;99985;-78
2023/07/07 11:53:18;;;;;;;2.50;2.20;;;;;;;26.45;38.48;97748.21;105115;1276;101683;-83
2023/07/07 11:56:20;;;;;;;6.10;2.80;;;;;;;26.22;38.87;97746.19;104790;1277;100079;-83
2023/07/07 11:58:52;;;;;;;6.00;3.00;;;;;;;25.98;39.37;97749.75;107048;1253;95812;-85
2023/07/07 12:01:24;;;;;;;3.80;2.60;;;;;;;25.86;39.42;97744.97;108599;1253;93665;-83
2023/07/07 12:03:54;;;;;;;5.80;2.80;;;;;;;25.73;39.07;97741.37;106288;1257;101052;-83
2023/07/07 12:06:24;;;;;;;5.40;2.80;;;;;;;25.57;39.50;97739.61;105324;1270;101587;-83
2023/07/07 12:09:20;;;;;;;3.30;2.60;;;;;;;25.46;39.65;97736.90;105188;1253;99905;-84
2023/07/07 12:12:00;;;;;;;6.20;2.80;;;;;;;25.45;39.44;97741.38;105064;1264;95851;-80
2023/07/07 12:15:23;;;;;;;4.40;2.80;;;;;;;25.61;39.68;97732.65;105142;1259;97247;-87
2023/07/07 12:18:30;;;;;;;6.90;2.80;;;;;;;25.88;39.52;97727.17;104623;1263;99974;-90
2023/07/07 12:21:34;;;;;;;5.30;2.80;;;;;;;26.33;39.36;97723.92;104741;1265;100377;-87
2023/07/07 12:24:59;;;;;;;3.30;2.70;;;;;;;26.82;38.84;97725.95;104621;1260;98830;-87
2023/07/07 12:27:40;;;;;;;4.30;2.80;;;;;;;27.24;38.07;97717.86;104400;1271;96154;-89
2023/07/07 12:30:28;;;;;;;5.10;2.90;;;;;;;27.39;37.90;97708.15;103991;1271;95919;-91
2023/07/07 12:33:15;;;;;;;7.70;2.80;;;;;;;27.59;38.26;97704.75;103937;1287;99999;-82
2023/07/07 12:36:29;;;;;;;6.10;2.50;;;;;;;27.72;38.78;97710.70;103908;1275;100092;-78
2023/07/07 12:39:36;;;;;;;10.00;2.90;;;;;;;27.79;38.63;97714.09;103559;1296;98992;-78
2023/07/07 12:42:32;;;;;;;10.40;3.10;;;;;;;27.64;37.38;97713.63;103925;1277;96215;-79
2023/07/07 12:45:48;;;;;;;24.60;4.10;;;;;;;27.67;38.31;97712.05;103629;1279;96119;-79
2023/07/07 12:48:55;;;;;;;10.50;3.30;;;;;;;27.95;38.17;97721.02;103508;1277;99793;-80
2023/07/07 12:52:02;;;;;;;5.60;2.60;;;;;;;28.17;38.42;97728.39;103427;1280;100437;-79
2023/07/07 12:56:23;;;;;;;4.20;2.90;;;;;;;28.09;37.75;97729.64;101752;1295;635772;-80
2023/07/07 13:01:36;;;;;;;2.90;2.30;;;;;;;27.57;37.80;97731.12;101774;1295;643060;-80
2023/07/07 13:04:29;;;;;;;6.20;2.80;;;;;;;27.28;38.38;97729.80;104339;1273;96841;-82
2023/07/07 13:07:39;;;;;;;6.30;3.20;;;;;;;27.28;38.76;97730.61;104446;1269;95858;-81
2023/07/07 13:10:52;;;;;;;4.00;2.40;;;;;;;27.33;38.85;97733.23;103842;1276;98071;-79
2023/07/07 13:13:44;;;;;;;2.80;2.20;;;;;;;27.31;39.16;97734.42;100520;1262;5350549;-79
2023/07/07 13:16:30;;;;;;;4.70;2.70;;;;;;;27.34;38.79;97734.27;104449;1268;97035;-79
2023/07/07 13:19:18;;;;;;;4.80;2.50;;;;;;;27.31;37.78;97731.66;104483;1266;97271;-83
2023/07/07 13:22:31;;;;;;;3.90;2.50;;;;;;;27.19;36.94;97728.77;104139;1269;98523;-81
2023/07/07 13:25:47;;;;;;;5.60;2.50;;;;;;;27.17;36.38;97724.05;103564;1280;100424;-80
2023/07/07 13:28:54;;;;;;;3.60;2.30;;;;;;;27.34;37.05;97716.35;103265;1283;101306;-82
2023/07/07 13:32:00;;;;;;;4.30;2.60;;;;;;;27.64;37.74;97716.02;103190;1283;95920;-81
2023/07/07 13:34:46;;;;;;;6.10;2.30;;;;;;;27.82;37.19;97716.45;102561;1286;96935;-81
2023/07/07 13:37:35;;;;;;;4.70;2.50;;;;;;;28.00;36.57;97720.59;103052;1283;99988;-83
2023/07/07 13:40:26;;;;;;;4.70;2.20;;;;;;;27.88;35.99;97716.91;102743;1288;100420;-81